sensor_id;sensor_type;location;lat;lon;timestamp;P1;durP1;ratioP1;P2;durP2;ratioP2
37067;SDS011;22982;42.848;25.468;2024-03-08T00:01:41;2.13;;;1.92;;
37067;SDS011;22982;42.848;25.468;2024-03-08T00:06:45;2.10;;;1.90;;
37067;SDS011;22982;42.848;25.468;2024-03-08T00:11:50;2.03;;;1.83;;
37067;SDS011;22982;42.848;25.468;2024-03-08T00:16:54;1.58;;;1.35;;
37067;SDS011;22982;42.848;25.468;2024-03-08T00:21:57;8.00;;;4.55;;
37067;SDS011;22982;42.848;25.468;2024-03-08T00:26:59;2.65;;;2.30;;
37067;SDS011;22982;42.848;25.468;2024-03-08T00:32:04;1.80;;;1.70;;
37067;SDS011;22982;42.848;25.468;2024-03-08T00:37:07;2.20;;;2.00;;
37067;SDS011;22982;42.848;25.468;2024-03-08T00:42:10;2.05;;;1.83;;
37067;SDS011;22982;42.848;25.468;2024-03-08T00:47:13;2.28;;;1.70;;
37067;SDS011;22982;42.848;25.468;2024-03-08T00:52:17;3.85;;;2.92;;
37067;SDS011;22982;42.848;25.468;2024-03-08T00:57:20;4.18;;;2.00;;
37067;SDS011;22982;42.848;25.468;2024-03-08T01:02:23;1.75;;;1.58;;
37067;SDS011;22982;42.848;25.468;2024-03-08T01:07:27;1.85;;;1.63;;
37067;SDS011;22982;42.848;25.468;2024-03-08T01:12:29;1.60;;;1.50;;
37067;SDS011;22982;42.848;25.468;2024-03-08T01:17:33;2.40;;;2.03;;
37067;SDS011;22982;42.848;25.468;2024-03-08T01:22:35;2.35;;;2.15;;
37067;SDS011;22982;42.848;25.468;2024-03-08T01:27:38;4.15;;;3.35;;
37067;SDS011;22982;42.848;25.468;2024-03-08T01:32:41;4.38;;;3.63;;
37067;SDS011;22982;42.848;25.468;2024-03-08T01:37:44;4.72;;;3.65;;
37067;SDS011;22982;42.848;25.468;2024-03-08T01:42:48;4.68;;;3.50;;
37067;SDS011;22982;42.848;25.468;2024-03-08T01:47:50;3.38;;;3.08;;
37067;SDS011;22982;42.848;25.468;2024-03-08T01:52:53;4.05;;;3.13;;
37067;SDS011;22982;42.848;25.468;2024-03-08T01:57:57;11.98;;;6.88;;
37067;SDS011;22982;42.848;25.468;2024-03-08T02:03:01;4.22;;;3.58;;
37067;SDS011;22982;42.848;25.468;2024-03-08T02:08:05;5.25;;;3.80;;
37067;SDS011;22982;42.848;25.468;2024-03-08T02:13:09;35.78;;;16.67;;
37067;SDS011;22982;42.848;25.468;2024-03-08T02:18:13;5.93;;;4.53;;
37067;SDS011;22982;42.848;25.468;2024-03-08T02:23:16;14.88;;;7.47;;
37067;SDS011;22982;42.848;25.468;2024-03-08T02:28:20;44.40;;;23.90;;
37067;SDS011;22982;42.848;25.468;2024-03-08T02:33:23;26.88;;;14.32;;
37067;SDS011;22982;42.848;25.468;2024-03-08T02:38:26;17.30;;;10.52;;
37067;SDS011;22982;42.848;25.468;2024-03-08T02:43:30;14.95;;;8.82;;
37067;SDS011;22982;42.848;25.468;2024-03-08T02:48:33;20.95;;;12.43;;
37067;SDS011;22982;42.848;25.468;2024-03-08T02:53:36;6.38;;;4.45;;
37067;SDS011;22982;42.848;25.468;2024-03-08T02:58:39;3.95;;;2.80;;
37067;SDS011;22982;42.848;25.468;2024-03-08T03:03:42;4.18;;;2.95;;
37067;SDS011;22982;42.848;25.468;2024-03-08T03:08:45;2.80;;;2.50;;
37067;SDS011;22982;42.848;25.468;2024-03-08T03:13:48;3.45;;;2.28;;
37067;SDS011;22982;42.848;25.468;2024-03-08T03:18:51;2.10;;;1.70;;
37067;SDS011;22982;42.848;25.468;2024-03-08T03:23:54;1.10;;;1.00;;
37067;SDS011;22982;42.848;25.468;2024-03-08T03:28:57;1.33;;;1.20;;
37067;SDS011;22982;42.848;25.468;2024-03-08T03:33:59;1.33;;;1.08;;
37067;SDS011;22982;42.848;25.468;2024-03-08T03:39:05;38.20;;;22.10;;
37067;SDS011;22982;42.848;25.468;2024-03-08T03:44:18;2.05;;;1.85;;
37067;SDS011;22982;42.848;25.468;2024-03-08T03:49:21;1.20;;;1.10;;
37067;SDS011;22982;42.848;25.468;2024-03-08T03:54:24;1.58;;;1.48;;
37067;SDS011;22982;42.848;25.468;2024-03-08T03:59:27;1.50;;;1.40;;
37067;SDS011;22982;42.848;25.468;2024-03-08T04:04:30;1.27;;;1.17;;
37067;SDS011;22982;42.848;25.468;2024-03-08T04:09:34;2.78;;;1.10;;
37067;SDS011;22982;42.848;25.468;2024-03-08T04:14:38;1.98;;;1.33;;
37067;SDS011;22982;42.848;25.468;2024-03-08T04:19:43;1.08;;;0.98;;
37067;SDS011;22982;42.848;25.468;2024-03-08T04:24:46;7.00;;;1.27;;
37067;SDS011;22982;42.848;25.468;2024-03-08T04:29:48;1.60;;;1.40;;
37067;SDS011;22982;42.848;25.468;2024-03-08T04:34:51;2.13;;;1.90;;
37067;SDS011;22982;42.848;25.468;2024-03-08T04:39:53;2.80;;;2.40;;
37067;SDS011;22982;42.848;25.468;2024-03-08T04:44:56;2.20;;;2.00;;
37067;SDS011;22982;42.848;25.468;2024-03-08T04:50:00;1.05;;;0.95;;
37067;SDS011;22982;42.848;25.468;2024-03-08T04:55:02;1.70;;;1.50;;
37067;SDS011;22982;42.848;25.468;2024-03-08T05:00:08;6.78;;;2.55;;
37067;SDS011;22982;42.848;25.468;2024-03-08T05:05:13;1.85;;;1.60;;
37067;SDS011;22982;42.848;25.468;2024-03-08T05:10:17;1.08;;;1.05;;
37067;SDS011;22982;42.848;25.468;2024-03-08T05:15:20;5.35;;;3.47;;
37067;SDS011;22982;42.848;25.468;2024-03-08T05:20:22;6.13;;;3.90;;
37067;SDS011;22982;42.848;25.468;2024-03-08T05:25:24;3.10;;;2.58;;
37067;SDS011;22982;42.848;25.468;2024-03-08T05:30:28;2.72;;;1.40;;
37067;SDS011;22982;42.848;25.468;2024-03-08T05:35:31;2.92;;;2.30;;
37067;SDS011;22982;42.848;25.468;2024-03-08T05:40:34;9.40;;;7.20;;
37067;SDS011;22982;42.848;25.468;2024-03-08T05:45:37;6.60;;;4.85;;
37067;SDS011;22982;42.848;25.468;2024-03-08T05:50:40;5.20;;;3.78;;
37067;SDS011;22982;42.848;25.468;2024-03-08T05:55:45;4.68;;;3.78;;
37067;SDS011;22982;42.848;25.468;2024-03-08T06:00:48;5.10;;;4.18;;
37067;SDS011;22982;42.848;25.468;2024-03-08T06:05:54;9.27;;;7.18;;
37067;SDS011;22982;42.848;25.468;2024-03-08T06:10:58;8.35;;;5.13;;
37067;SDS011;22982;42.848;25.468;2024-03-08T06:16:01;99.07;;;42.28;;
37067;SDS011;22982;42.848;25.468;2024-03-08T06:21:07;32.88;;;21.40;;
37067;SDS011;22982;42.848;25.468;2024-03-08T06:26:15;21.75;;;19.17;;
37067;SDS011;22982;42.848;25.468;2024-03-08T06:31:19;14.90;;;10.23;;
37067;SDS011;22982;42.848;25.468;2024-03-08T06:36:21;13.07;;;9.05;;
37067;SDS011;22982;42.848;25.468;2024-03-08T06:41:24;15.95;;;11.07;;
37067;SDS011;22982;42.848;25.468;2024-03-08T06:46:27;16.88;;;11.38;;
37067;SDS011;22982;42.848;25.468;2024-03-08T06:51:29;19.67;;;12.88;;
37067;SDS011;22982;42.848;25.468;2024-03-08T06:56:33;13.32;;;8.43;;
37067;SDS011;22982;42.848;25.468;2024-03-08T07:01:35;18.67;;;12.90;;
37067;SDS011;22982;42.848;25.468;2024-03-08T07:06:38;16.27;;;12.27;;
37067;SDS011;22982;42.848;25.468;2024-03-08T07:11:43;9.90;;;8.02;;
37067;SDS011;22982;42.848;25.468;2024-03-08T07:16:46;12.27;;;9.63;;
37067;SDS011;22982;42.848;25.468;2024-03-08T07:21:49;10.15;;;8.43;;
37067;SDS011;22982;42.848;25.468;2024-03-08T07:26:52;19.98;;;14.60;;
37067;SDS011;22982;42.848;25.468;2024-03-08T07:31:54;14.32;;;10.45;;
37067;SDS011;22982;42.848;25.468;2024-03-08T07:37:17;61.53;;;41.58;;
37067;SDS011;22982;42.848;25.468;2024-03-08T07:42:20;8.60;;;6.35;;
37067;SDS011;22982;42.848;25.468;2024-03-08T07:47:25;10.57;;;7.68;;
37067;SDS011;22982;42.848;25.468;2024-03-08T07:52:28;13.48;;;8.77;;
37067;SDS011;22982;42.848;25.468;2024-03-08T07:57:31;7.13;;;5.85;;
37067;SDS011;22982;42.848;25.468;2024-03-08T08:02:35;10.20;;;7.43;;
37067;SDS011;22982;42.848;25.468;2024-03-08T08:07:43;7.63;;;5.85;;
37067;SDS011;22982;42.848;25.468;2024-03-08T08:12:50;28.83;;;14.88;;
37067;SDS011;22982;42.848;25.468;2024-03-08T08:17:56;43.10;;;27.38;;
37067;SDS011;22982;42.848;25.468;2024-03-08T08:22:59;5.95;;;4.63;;
37067;SDS011;22982;42.848;25.468;2024-03-08T08:28:01;14.50;;;10.93;;
37067;SDS011;22982;42.848;25.468;2024-03-08T08:33:06;13.85;;;10.40;;
37067;SDS011;22982;42.848;25.468;2024-03-08T08:38:11;8.88;;;6.60;;
37067;SDS011;22982;42.848;25.468;2024-03-08T08:43:13;17.25;;;13.05;;
37067;SDS011;22982;42.848;25.468;2024-03-08T08:48:16;10.45;;;8.07;;
37067;SDS011;22982;42.848;25.468;2024-03-08T08:53:19;5.80;;;4.93;;
37067;SDS011;22982;42.848;25.468;2024-03-08T08:58:22;7.38;;;5.03;;
37067;SDS011;22982;42.848;25.468;2024-03-08T09:03:24;6.25;;;5.00;;
37067;SDS011;22982;42.848;25.468;2024-03-08T09:08:29;5.18;;;4.55;;
37067;SDS011;22982;42.848;25.468;2024-03-08T09:13:34;5.07;;;3.85;;
37067;SDS011;22982;42.848;25.468;2024-03-08T09:18:36;6.70;;;5.75;;
37067;SDS011;22982;42.848;25.468;2024-03-08T09:23:39;10.15;;;6.65;;
37067;SDS011;22982;42.848;25.468;2024-03-08T09:28:43;8.77;;;6.45;;
37067;SDS011;22982;42.848;25.468;2024-03-08T09:33:47;12.52;;;7.97;;
37067;SDS011;22982;42.848;25.468;2024-03-08T09:38:50;12.65;;;8.10;;
37067;SDS011;22982;42.848;25.468;2024-03-08T09:43:52;12.10;;;8.20;;
37067;SDS011;22982;42.848;25.468;2024-03-08T09:48:58;8.38;;;6.28;;
37067;SDS011;22982;42.848;25.468;2024-03-08T09:54:03;10.38;;;7.88;;
37067;SDS011;22982;42.848;25.468;2024-03-08T09:59:21;10.98;;;7.55;;
37067;SDS011;22982;42.848;25.468;2024-03-08T10:10:00;11.85;;;9.10;;
37067;SDS011;22982;42.848;25.468;2024-03-08T10:15:05;10.60;;;7.90;;
37067;SDS011;22982;42.848;25.468;2024-03-08T10:20:16;10.15;;;8.15;;
37067;SDS011;22982;42.848;25.468;2024-03-08T10:25:21;12.27;;;8.30;;
37067;SDS011;22982;42.848;25.468;2024-03-08T10:30:23;15.40;;;10.85;;
37067;SDS011;22982;42.848;25.468;2024-03-08T10:35:26;20.40;;;12.60;;
37067;SDS011;22982;42.848;25.468;2024-03-08T10:40:28;11.68;;;8.40;;
37067;SDS011;22982;42.848;25.468;2024-03-08T10:51:15;18.65;;;11.77;;
37067;SDS011;22982;42.848;25.468;2024-03-08T10:56:19;100.38;;;43.58;;
37067;SDS011;22982;42.848;25.468;2024-03-08T11:01:22;38.03;;;21.27;;
37067;SDS011;22982;42.848;25.468;2024-03-08T11:11:40;137.88;;;66.55;;
37067;SDS011;22982;42.848;25.468;2024-03-08T11:16:44;40.50;;;23.67;;
37067;SDS011;22982;42.848;25.468;2024-03-08T11:21:48;19.63;;;12.55;;
37067;SDS011;22982;42.848;25.468;2024-03-08T11:26:59;19.65;;;13.13;;
37067;SDS011;22982;42.848;25.468;2024-03-08T11:32:10;14.43;;;9.82;;
37067;SDS011;22982;42.848;25.468;2024-03-08T11:37:19;18.20;;;11.35;;
37067;SDS011;22982;42.848;25.468;2024-03-08T11:42:25;14.63;;;10.63;;
37067;SDS011;22982;42.848;25.468;2024-03-08T11:47:30;16.00;;;11.02;;
37067;SDS011;22982;42.848;25.468;2024-03-08T11:52:33;16.35;;;11.23;;
37067;SDS011;22982;42.848;25.468;2024-03-08T11:57:36;12.93;;;9.35;;
37067;SDS011;22982;42.848;25.468;2024-03-08T12:02:39;22.77;;;13.80;;
37067;SDS011;22982;42.848;25.468;2024-03-08T12:07:44;22.40;;;14.13;;
37067;SDS011;22982;42.848;25.468;2024-03-08T12:12:58;19.00;;;12.60;;
37067;SDS011;22982;42.848;25.468;2024-03-08T12:18:05;16.73;;;11.00;;
37067;SDS011;22982;42.848;25.468;2024-03-08T12:23:13;17.73;;;11.43;;
37067;SDS011;22982;42.848;25.468;2024-03-08T12:28:19;17.98;;;11.13;;
37067;SDS011;22982;42.848;25.468;2024-03-08T12:33:24;20.38;;;13.07;;
37067;SDS011;22982;42.848;25.468;2024-03-08T12:38:29;18.40;;;11.48;;
37067;SDS011;22982;42.848;25.468;2024-03-08T12:43:34;14.93;;;9.95;;
37067;SDS011;22982;42.848;25.468;2024-03-08T12:48:37;15.52;;;10.20;;
37067;SDS011;22982;42.848;25.468;2024-03-08T12:53:42;16.48;;;10.05;;
37067;SDS011;22982;42.848;25.468;2024-03-08T12:58:46;13.77;;;9.15;;
37067;SDS011;22982;42.848;25.468;2024-03-08T13:03:49;14.00;;;9.23;;
37067;SDS011;22982;42.848;25.468;2024-03-08T13:08:52;14.50;;;10.13;;
37067;SDS011;22982;42.848;25.468;2024-03-08T13:13:55;16.92;;;11.35;;
37067;SDS011;22982;42.848;25.468;2024-03-08T13:19:00;16.10;;;10.98;;
37067;SDS011;22982;42.848;25.468;2024-03-08T13:24:02;27.42;;;14.98;;
37067;SDS011;22982;42.848;25.468;2024-03-08T13:29:06;22.42;;;13.27;;
37067;SDS011;22982;42.848;25.468;2024-03-08T13:34:08;14.27;;;9.30;;
37067;SDS011;22982;42.848;25.468;2024-03-08T13:39:13;14.73;;;9.43;;
37067;SDS011;22982;42.848;25.468;2024-03-08T13:44:18;15.63;;;10.65;;
37067;SDS011;22982;42.848;25.468;2024-03-08T13:49:20;30.63;;;19.10;;
37067;SDS011;22982;42.848;25.468;2024-03-08T13:54:24;24.27;;;18.25;;
37067;SDS011;22982;42.848;25.468;2024-03-08T13:59:27;29.58;;;19.60;;
37067;SDS011;22982;42.848;25.468;2024-03-08T14:04:31;53.17;;;37.38;;
37067;SDS011;22982;42.848;25.468;2024-03-08T14:09:34;18.23;;;12.50;;
37067;SDS011;22982;42.848;25.468;2024-03-08T14:14:41;23.58;;;16.55;;
37067;SDS011;22982;42.848;25.468;2024-03-08T14:19:46;24.27;;;17.40;;
37067;SDS011;22982;42.848;25.468;2024-03-08T14:24:50;23.77;;;14.40;;
37067;SDS011;22982;42.848;25.468;2024-03-08T14:29:53;45.35;;;31.25;;
37067;SDS011;22982;42.848;25.468;2024-03-08T14:34:57;33.70;;;21.20;;
37067;SDS011;22982;42.848;25.468;2024-03-08T14:40:01;31.13;;;20.15;;
37067;SDS011;22982;42.848;25.468;2024-03-08T14:45:03;26.10;;;16.10;;
37067;SDS011;22982;42.848;25.468;2024-03-08T14:50:08;26.70;;;16.40;;
37067;SDS011;22982;42.848;25.468;2024-03-08T14:55:11;27.00;;;17.65;;
37067;SDS011;22982;42.848;25.468;2024-03-08T15:00:17;35.58;;;21.52;;
37067;SDS011;22982;42.848;25.468;2024-03-08T15:05:37;49.85;;;32.08;;
37067;SDS011;22982;42.848;25.468;2024-03-08T15:10:44;67.90;;;38.20;;
37067;SDS011;22982;42.848;25.468;2024-03-08T15:15:46;46.60;;;29.17;;
37067;SDS011;22982;42.848;25.468;2024-03-08T15:20:53;28.73;;;19.48;;
37067;SDS011;22982;42.848;25.468;2024-03-08T15:25:57;44.08;;;25.67;;
37067;SDS011;22982;42.848;25.468;2024-03-08T15:31:00;33.90;;;22.02;;
37067;SDS011;22982;42.848;25.468;2024-03-08T15:36:07;47.78;;;23.48;;
37067;SDS011;22982;42.848;25.468;2024-03-08T15:41:14;76.45;;;44.90;;
37067;SDS011;22982;42.848;25.468;2024-03-08T15:46:16;103.45;;;47.15;;
37067;SDS011;22982;42.848;25.468;2024-03-08T15:51:24;46.28;;;31.20;;
37067;SDS011;22982;42.848;25.468;2024-03-08T15:56:28;45.22;;;22.48;;
37067;SDS011;22982;42.848;25.468;2024-03-08T16:01:32;49.65;;;33.05;;
37067;SDS011;22982;42.848;25.468;2024-03-08T16:06:35;55.10;;;30.85;;
37067;SDS011;22982;42.848;25.468;2024-03-08T16:11:38;38.17;;;20.90;;
37067;SDS011;22982;42.848;25.468;2024-03-08T16:16:42;39.63;;;23.30;;
37067;SDS011;22982;42.848;25.468;2024-03-08T16:21:45;40.80;;;21.52;;
37067;SDS011;22982;42.848;25.468;2024-03-08T16:26:48;40.00;;;21.98;;
37067;SDS011;22982;42.848;25.468;2024-03-08T16:31:53;38.35;;;19.70;;
37067;SDS011;22982;42.848;25.468;2024-03-08T16:36:57;63.78;;;43.90;;
37067;SDS011;22982;42.848;25.468;2024-03-08T16:42:00;60.70;;;31.75;;
37067;SDS011;22982;42.848;25.468;2024-03-08T16:47:07;44.70;;;23.92;;
37067;SDS011;22982;42.848;25.468;2024-03-08T16:52:09;51.33;;;24.58;;
37067;SDS011;22982;42.848;25.468;2024-03-08T16:57:13;126.80;;;65.35;;
37067;SDS011;22982;42.848;25.468;2024-03-08T17:02:16;56.55;;;28.30;;
37067;SDS011;22982;42.848;25.468;2024-03-08T17:07:19;94.70;;;46.22;;
37067;SDS011;22982;42.848;25.468;2024-03-08T17:12:23;71.53;;;36.10;;
37067;SDS011;22982;42.848;25.468;2024-03-08T17:17:25;66.72;;;34.08;;
37067;SDS011;22982;42.848;25.468;2024-03-08T17:22:28;74.40;;;36.72;;
37067;SDS011;22982;42.848;25.468;2024-03-08T17:27:32;54.55;;;27.92;;
37067;SDS011;22982;42.848;25.468;2024-03-08T17:32:38;53.97;;;28.52;;
37067;SDS011;22982;42.848;25.468;2024-03-08T17:37:40;60.95;;;32.20;;
37067;SDS011;22982;42.848;25.468;2024-03-08T17:42:44;79.40;;;40.38;;
37067;SDS011;22982;42.848;25.468;2024-03-08T17:47:48;47.40;;;26.70;;
37067;SDS011;22982;42.848;25.468;2024-03-08T17:58:16;57.15;;;29.58;;
37067;SDS011;22982;42.848;25.468;2024-03-08T18:03:18;82.47;;;39.45;;
37067;SDS011;22982;42.848;25.468;2024-03-08T18:08:23;93.43;;;44.35;;
37067;SDS011;22982;42.848;25.468;2024-03-08T18:13:25;100.38;;;47.80;;
37067;SDS011;22982;42.848;25.468;2024-03-08T18:18:28;48.97;;;25.73;;
37067;SDS011;22982;42.848;25.468;2024-03-08T18:23:31;51.28;;;26.20;;
37067;SDS011;22982;42.848;25.468;2024-03-08T18:28:34;50.08;;;26.13;;
37067;SDS011;22982;42.848;25.468;2024-03-08T18:33:38;59.15;;;29.67;;
37067;SDS011;22982;42.848;25.468;2024-03-08T18:38:46;47.42;;;25.85;;
37067;SDS011;22982;42.848;25.468;2024-03-08T18:43:50;42.92;;;22.95;;
37067;SDS011;22982;42.848;25.468;2024-03-08T18:48:53;55.97;;;29.15;;
37067;SDS011;22982;42.848;25.468;2024-03-08T18:53:56;40.67;;;21.08;;
37067;SDS011;22982;42.848;25.468;2024-03-08T18:58:58;40.15;;;22.35;;
37067;SDS011;22982;42.848;25.468;2024-03-08T19:04:02;50.30;;;23.92;;
37067;SDS011;22982;42.848;25.468;2024-03-08T19:09:05;54.58;;;30.67;;
37067;SDS011;22982;42.848;25.468;2024-03-08T19:14:11;51.25;;;24.80;;
37067;SDS011;22982;42.848;25.468;2024-03-08T19:19:14;51.85;;;25.90;;
37067;SDS011;22982;42.848;25.468;2024-03-08T19:24:16;41.10;;;21.02;;
37067;SDS011;22982;42.848;25.468;2024-03-08T19:29:18;52.10;;;27.48;;
37067;SDS011;22982;42.848;25.468;2024-03-08T19:34:26;50.30;;;26.10;;
37067;SDS011;22982;42.848;25.468;2024-03-08T19:39:29;45.17;;;23.13;;
37067;SDS011;22982;42.848;25.468;2024-03-08T19:44:32;41.15;;;21.02;;
37067;SDS011;22982;42.848;25.468;2024-03-08T19:49:34;45.63;;;22.20;;
37067;SDS011;22982;42.848;25.468;2024-03-08T19:54:38;48.88;;;24.02;;
37067;SDS011;22982;42.848;25.468;2024-03-08T19:59:41;42.33;;;22.15;;
37067;SDS011;22982;42.848;25.468;2024-03-08T20:04:46;48.42;;;22.10;;
37067;SDS011;22982;42.848;25.468;2024-03-08T20:09:49;41.47;;;23.00;;
37067;SDS011;22982;42.848;25.468;2024-03-08T20:14:52;41.75;;;23.27;;
37067;SDS011;22982;42.848;25.468;2024-03-08T20:19:54;40.75;;;22.00;;
37067;SDS011;22982;42.848;25.468;2024-03-08T20:25:00;37.78;;;21.85;;
37067;SDS011;22982;42.848;25.468;2024-03-08T20:30:03;40.83;;;22.45;;
37067;SDS011;22982;42.848;25.468;2024-03-08T20:35:06;40.13;;;20.80;;
37067;SDS011;22982;42.848;25.468;2024-03-08T20:40:12;44.75;;;22.63;;
37067;SDS011;22982;42.848;25.468;2024-03-08T20:45:15;106.90;;;47.85;;
37067;SDS011;22982;42.848;25.468;2024-03-08T20:50:19;60.67;;;31.02;;
37067;SDS011;22982;42.848;25.468;2024-03-08T20:55:25;66.13;;;34.03;;
37067;SDS011;22982;42.848;25.468;2024-03-08T21:00:29;114.20;;;52.97;;
37067;SDS011;22982;42.848;25.468;2024-03-08T21:05:42;93.47;;;42.03;;
37067;SDS011;22982;42.848;25.468;2024-03-08T21:10:46;81.35;;;37.72;;
37067;SDS011;22982;42.848;25.468;2024-03-08T21:15:49;71.13;;;33.83;;
37067;SDS011;22982;42.848;25.468;2024-03-08T21:20:55;79.10;;;37.30;;
37067;SDS011;22982;42.848;25.468;2024-03-08T21:25:57;72.10;;;34.17;;
37067;SDS011;22982;42.848;25.468;2024-03-08T21:31:03;64.28;;;32.70;;
37067;SDS011;22982;42.848;25.468;2024-03-08T21:36:07;68.07;;;33.70;;
37067;SDS011;22982;42.848;25.468;2024-03-08T21:41:11;73.30;;;33.72;;
37067;SDS011;22982;42.848;25.468;2024-03-08T21:46:14;70.25;;;34.22;;
37067;SDS011;22982;42.848;25.468;2024-03-08T21:51:17;69.00;;;32.13;;
37067;SDS011;22982;42.848;25.468;2024-03-08T21:56:20;59.70;;;30.13;;
37067;SDS011;22982;42.848;25.468;2024-03-08T22:01:23;57.20;;;29.58;;
37067;SDS011;22982;42.848;25.468;2024-03-08T22:06:25;60.40;;;28.38;;
37067;SDS011;22982;42.848;25.468;2024-03-08T22:11:29;58.22;;;28.60;;
37067;SDS011;22982;42.848;25.468;2024-03-08T22:16:32;58.40;;;28.75;;
37067;SDS011;22982;42.848;25.468;2024-03-08T22:21:37;61.80;;;30.02;;
37067;SDS011;22982;42.848;25.468;2024-03-08T22:26:39;62.05;;;30.77;;
37067;SDS011;22982;42.848;25.468;2024-03-08T22:31:43;66.90;;;30.20;;
37067;SDS011;22982;42.848;25.468;2024-03-08T22:36:46;68.55;;;32.33;;
37067;SDS011;22982;42.848;25.468;2024-03-08T22:41:49;67.63;;;31.17;;
37067;SDS011;22982;42.848;25.468;2024-03-08T22:46:52;71.00;;;31.10;;
37067;SDS011;22982;42.848;25.468;2024-03-08T22:51:54;62.17;;;29.35;;
37067;SDS011;22982;42.848;25.468;2024-03-08T22:56:58;58.45;;;29.30;;
37067;SDS011;22982;42.848;25.468;2024-03-08T23:02:06;62.13;;;30.50;;
37067;SDS011;22982;42.848;25.468;2024-03-08T23:07:10;63.50;;;29.90;;
37067;SDS011;22982;42.848;25.468;2024-03-08T23:12:14;63.42;;;29.27;;
37067;SDS011;22982;42.848;25.468;2024-03-08T23:17:17;66.20;;;30.48;;
37067;SDS011;22982;42.848;25.468;2024-03-08T23:22:20;59.33;;;28.73;;
37067;SDS011;22982;42.848;25.468;2024-03-08T23:27:23;70.97;;;33.03;;
37067;SDS011;22982;42.848;25.468;2024-03-08T23:32:26;60.92;;;30.65;;
37067;SDS011;22982;42.848;25.468;2024-03-08T23:37:29;66.18;;;32.20;;
37067;SDS011;22982;42.848;25.468;2024-03-08T23:42:32;61.03;;;31.00;;
37067;SDS011;22982;42.848;25.468;2024-03-08T23:47:35;69.03;;;31.38;;
37067;SDS011;22982;42.848;25.468;2024-03-08T23:52:37;62.33;;;29.92;;
37067;SDS011;22982;42.848;25.468;2024-03-08T23:57:44;62.80;;;29.38;;
